Time;durP1;ratioP1;P1;durP2;ratioP2;P2;SDS_P1;SDS_P2;PMS_P1;PMS_P2;Temp;Humidity;BMP_temperature;BMP_pressure;BME280_temperature;BME280_humidity;BME280_pressure;Samples;Min_cycle;Max_cycle;Signal;HPM_P1;HPM_P2
2023/06/15 00:00:42;;;;;;;3.47;1.52;;;21.50;66.40;;;;;;6156846;23;20307;-79
2023/06/15 00:03:07;;;;;;;4.45;1.70;;;21.50;66.30;;;;;;6184795;23;20099;-78
2023/06/15 00:05:33;;;;;;;4.18;1.70;;;21.40;66.80;;;;;;6184790;23;20013;-79
2023/06/15 00:07:58;;;;;;;3.17;1.50;;;21.40;66.80;;;;;;6157201;23;20017;-79
2023/06/15 00:10:24;;;;;;;4.90;1.70;;;21.30;66.90;;;;;;6185120;23;20384;-79
2023/06/15 00:12:50;;;;;;;5.57;2.00;;;21.30;66.80;;;;;;6159924;23;20017;-79
2023/06/15 00:15:15;;;;;;;4.90;1.48;;;21.20;67.10;;;;;;6185664;23;20049;-79
2023/06/15 00:17:42;;;;;;;4.38;1.60;;;21.20;67.70;;;;;;6160061;23;20092;-79
2023/06/15 00:20:08;;;;;;;6.75;1.83;;;21.10;67.30;;;;;;6186425;23;20251;-78
2023/06/15 00:22:37;;;;;;;4.05;1.77;;;21.10;67.20;;;;;;6159243;23;20433;-78
2023/06/15 00:25:03;;;;;;;3.88;1.63;;;21.00;67.80;;;;;;6159317;23;20091;-79
2023/06/15 00:27:29;;;;;;;4.07;1.73;;;21.00;67.70;;;;;;6186891;23;20025;-78
2023/06/15 00:29:54;;;;;;;3.85;1.63;;;20.90;67.30;;;;;;6185161;23;20087;-79
2023/06/15 00:32:20;;;;;;;4.32;1.70;;;20.90;68.10;;;;;;6160168;23;20013;-79
2023/06/15 00:34:45;;;;;;;4.25;1.90;;;20.80;67.90;;;;;;6159093;23;20048;-79
2023/06/15 00:37:11;;;;;;;5.38;1.77;;;20.80;68.80;;;;;;6185803;23;20024;-78
2023/06/15 00:39:37;;;;;;;3.60;1.73;;;20.80;69.80;;;;;;6159929;23;20326;-78
2023/06/15 00:42:02;;;;;;;5.85;2.10;;;20.70;69.90;;;;;;6158651;23;20057;-79
2023/06/15 00:44:28;;;;;;;4.03;1.70;;;20.70;70.20;;;;;;6186548;23;20017;-79
2023/06/15 00:46:54;;;;;;;3.47;1.60;;;20.70;70.10;;;;;;6185622;23;20013;-78
2023/06/15 00:49:21;;;;;;;4.55;1.70;;;20.70;70.40;;;;;;6185207;23;20323;-79
2023/06/15 00:51:47;;;;;;;4.85;1.88;;;20.60;70.40;;;;;;6186479;23;20009;-79
2023/06/15 00:54:16;;;;;;;3.92;1.80;;;20.60;70.50;;;;;;6159337;23;20097;-78
2023/06/15 00:56:42;;;;;;;5.65;1.75;;;20.60;70.90;;;;;;6185858;23;20017;-79
2023/06/15 00:59:08;;;;;;;4.38;1.65;;;20.50;70.60;;;;;;6186181;23;20448;-79
2023/06/15 01:01:33;;;;;;;5.15;1.90;;;20.50;70.70;;;;;;6159423;23;20521;-78
2023/06/15 01:03:59;;;;;;;4.20;1.90;;;20.50;71.00;;;;;;6185169;23;20021;-78
2023/06/15 01:06:31;;;;;;;3.90;1.60;;;20.40;71.10;;;;;;6186128;23;20055;-78
2023/06/15 01:09:02;;;;;;;4.63;1.88;;;20.40;71.00;;;;;;6186259;23;20092;-78
2023/06/15 01:11:30;;;;;;;4.35;1.83;;;20.40;71.20;;;;;;6185351;23;20024;-79
2023/06/15 01:13:57;;;;;;;6.15;2.00;;;20.30;71.30;;;;;;6158954;23;20047;-78
2023/06/15 01:16:29;;;;;;;4.97;2.03;;;20.30;71.50;;;;;;6185753;23;20371;-78
2023/06/15 01:18:59;;;;;;;3.38;1.63;;;20.20;71.40;;;;;;6184668;23;20021;-78
2023/06/15 01:21:28;;;;;;;3.65;1.48;;;20.20;71.90;;;;;;6159569;23;20025;-78
2023/06/15 01:24:23;;;;;;;3.88;1.70;;;20.20;71.90;;;;;;6185899;23;20014;-78
2023/06/15 01:26:50;;;;;;;4.30;1.65;;;20.10;70.60;;;;;;6159825;23;20450;-78
2023/06/15 01:29:17;;;;;;;6.03;1.88;;;20.00;72.00;;;;;;6186113;23;20475;-78
2023/06/15 01:31:43;;;;;;;5.70;1.92;;;20.00;71.90;;;;;;6185055;23;20039;-78
2023/06/15 01:34:09;;;;;;;4.38;1.85;;;20.00;72.50;;;;;;6159137;23;20105;-78
2023/06/15 01:36:36;;;;;;;3.95;2.08;;;19.90;72.00;;;;;;6185965;23;20491;-78
2023/06/15 01:39:02;;;;;;;4.88;2.17;;;19.90;72.00;;;;;;6157761;23;20445;-78
2023/06/15 01:41:30;;;;;;;4.45;1.90;;;19.80;72.60;;;;;;6159144;23;20037;-78
2023/06/15 01:43:58;;;;;;;4.70;2.00;;;19.80;73.30;;;;;;6158942;23;20099;-78
2023/06/15 01:46:25;;;;;;;3.97;1.85;;;19.70;73.70;;;;;;6158003;23;20028;-78
2023/06/15 01:48:51;;;;;;;4.25;2.10;;;19.70;73.70;;;;;;6185480;23;20130;-78
2023/06/15 01:51:18;;;;;;;4.15;2.00;;;19.70;74.10;;;;;;6185803;23;20025;-78
2023/06/15 01:53:44;;;;;;;5.30;2.00;;;19.70;73.80;;;;;;6185189;23;20379;-78
2023/06/15 01:56:10;;;;;;;3.92;1.98;;;19.60;74.30;;;;;;6184765;23;20013;-78
2023/06/15 01:58:36;;;;;;;6.25;2.10;;;19.60;74.00;;;;;;6185253;23;20057;-78
2023/06/15 02:01:01;;;;;;;4.10;1.98;;;19.50;74.00;;;;;;6183896;23;20021;-78
2023/06/15 02:03:27;;;;;;;4.05;2.00;;;19.50;74.20;;;;;;6185792;23;20016;-78
2023/06/15 02:05:52;;;;;;;4.38;2.28;;;19.50;74.40;;;;;;6185255;23;20136;-78
2023/06/15 02:08:18;;;;;;;5.10;2.00;;;19.40;74.20;;;;;;6158056;23;20438;-78
2023/06/15 02:10:43;;;;;;;4.20;2.00;;;19.40;74.10;;;;;;6159006;23;20072;-78
2023/06/15 02:13:12;;;;;;;4.97;2.20;;;19.40;74.40;;;;;;6158773;23;20028;-78
2023/06/15 02:15:38;;;;;;;4.18;2.17;;;19.30;74.30;;;;;;6158515;23;20079;-79
2023/06/15 02:18:13;;;;;;;5.25;2.22;;;19.30;74.60;;;;;;6184756;23;20088;-78
2023/06/15 02:20:40;;;;;;;4.75;2.10;;;19.30;74.30;;;;;;6185094;23;20024;-77
2023/06/15 02:23:06;;;;;;;4.70;2.13;;;19.20;74.90;;;;;;6158617;23;20017;-79
2023/06/15 02:25:32;;;;;;;5.30;2.10;;;19.10;75.10;;;;;;6158755;23;20075;-79
2023/06/15 02:27:57;;;;;;;4.95;2.58;;;19.10;74.50;;;;;;6157523;23;20032;-78
2023/06/15 02:30:25;;;;;;;4.97;2.28;;;19.00;74.30;;;;;;6158839;23;20036;-79
2023/06/15 02:32:52;;;;;;;5.50;2.55;;;19.00;74.00;;;;;;6184966;23;20068;-78
2023/06/15 02:35:18;;;;;;;5.93;2.35;;;18.90;74.70;;;;;;6157477;23;20048;-78
2023/06/15 02:37:44;;;;;;;6.28;2.45;;;18.80;74.80;;;;;;6185559;23;20041;-78
2023/06/15 02:40:10;;;;;;;4.28;2.17;;;18.80;74.20;;;;;;6158993;23;20354;-78
2023/06/15 02:42:37;;;;;;;5.07;2.40;;;18.80;74.90;;;;;;6184219;23;20013;-78
2023/06/15 02:45:06;;;;;;;4.82;2.47;;;18.70;75.40;;;;;;6184897;23;20013;-78
2023/06/15 02:47:35;;;;;;;5.30;2.30;;;18.70;75.20;;;;;;6158734;23;20382;-78
2023/06/15 02:50:01;;;;;;;5.35;2.40;;;18.70;76.20;;;;;;6184082;23;20311;-78
2023/06/15 02:52:27;;;;;;;3.85;2.15;;;18.70;77.10;;;;;;6184964;23;20464;-78
2023/06/15 02:54:53;;;;;;;4.85;2.50;;;18.60;77.10;;;;;;6158525;23;20121;-78
2023/06/15 02:57:18;;;;;;;5.53;2.33;;;18.60;77.20;;;;;;6183808;23;20068;-78
2023/06/15 02:59:44;;;;;;;5.07;2.33;;;18.60;77.40;;;;;;6158536;23;20021;-78
2023/06/15 03:02:10;;;;;;;4.60;2.13;;;18.50;77.00;;;;;;6184931;23;20020;-78
2023/06/15 03:04:44;;;;;;;5.88;2.60;;;18.50;76.90;;;;;;6157635;23;20017;-78
2023/06/15 03:07:11;;;;;;;5.65;2.35;;;18.40;77.20;;;;;;6184902;23;20386;-78
2023/06/15 03:09:37;;;;;;;5.47;2.55;;;18.40;76.90;;;;;;6157426;23;20134;-78
2023/06/15 03:12:03;;;;;;;6.03;2.70;;;18.40;77.50;;;;;;6184553;23;20013;-78
2023/06/15 03:14:28;;;;;;;5.82;2.60;;;18.40;77.60;;;;;;6184990;23;20349;-78
2023/06/15 03:16:55;;;;;;;7.88;2.75;;;18.30;77.10;;;;;;6157014;23;20120;-78
2023/06/15 03:19:21;;;;;;;4.55;2.45;;;18.30;77.60;;;;;;6185006;23;20048;-78
2023/06/15 03:21:47;;;;;;;6.00;2.55;;;18.20;77.40;;;;;;6158672;23;20021;-78
2023/06/15 03:24:13;;;;;;;5.68;2.30;;;18.20;77.30;;;;;;6183617;23;20013;-77
2023/06/15 03:26:40;;;;;;;6.68;2.85;;;18.20;77.20;;;;;;6158494;23;20017;-78
2023/06/15 03:29:06;;;;;;;6.03;2.75;;;18.20;78.20;;;;;;6157704;23;20028;-78
2023/06/15 03:31:33;;;;;;;4.57;2.50;;;18.10;78.40;;;;;;6183817;23;20333;-78
2023/06/15 03:34:02;;;;;;;4.75;2.42;;;18.10;77.50;;;;;;6185003;23;20438;-77
2023/06/15 03:36:31;;;;;;;6.60;3.03;;;18.00;78.20;;;;;;6158599;23;20028;-77
2023/06/15 03:38:57;;;;;;;5.53;2.75;;;18.10;78.30;;;;;;6183587;23;20020;-77
2023/06/15 03:41:24;;;;;;;6.55;2.60;;;18.00;78.60;;;;;;6158708;23;20044;-77
2023/06/15 03:43:49;;;;;;;5.40;2.80;;;18.00;78.90;;;;;;6184671;23;20028;-78
2023/06/15 03:46:15;;;;;;;5.35;2.95;;;18.00;79.10;;;;;;6158285;23;20021;-77
2023/06/15 03:48:41;;;;;;;5.65;2.83;;;18.00;78.60;;;;;;6186302;23;20017;-78
2023/06/15 03:51:06;;;;;;;5.57;2.80;;;17.90;78.70;;;;;;6160160;23;20445;-78
2023/06/15 03:53:32;;;;;;;4.47;2.40;;;17.90;78.50;;;;;;6185745;23;20017;-78
2023/06/15 03:55:57;;;;;;;5.72;2.63;;;17.90;78.40;;;;;;6186620;23;20055;-78
2023/06/15 03:58:24;;;;;;;6.43;2.97;;;17.90;78.80;;;;;;6185777;23;20101;-78
2023/06/15 04:00:51;;;;;;;6.03;2.47;;;17.80;78.80;;;;;;6185038;23;20013;-78
2023/06/15 04:03:17;;;;;;;6.35;2.90;;;17.80;78.00;;;;;;6185158;23;20095;-78
2023/06/15 04:05:43;;;;;;;6.30;2.80;;;17.80;78.90;;;;;;6187055;23;20017;-77
2023/06/15 04:08:08;;;;;;;5.95;2.92;;;17.70;78.30;;;;;;6160342;23;20017;-77
2023/06/15 04:10:35;;;;;;;7.25;2.90;;;17.70;78.60;;;;;;6160206;23;20346;-86
2023/06/15 04:13:00;;;;;;;5.97;2.80;;;17.70;79.30;;;;;;6159174;23;20024;-86
2023/06/15 04:15:26;;;;;;;6.20;2.50;;;17.70;79.10;;;;;;6160473;23;20016;-86
2023/06/15 04:17:52;;;;;;;5.85;2.88;;;17.70;79.10;;;;;;6186254;23;20095;-85
2023/06/15 04:20:17;;;;;;;6.22;2.70;;;17.60;79.60;;;;;;6185914;23;20453;-85
2023/06/15 04:22:43;;;;;;;5.65;2.67;;;17.60;79.70;;;;;;6186555;23;20013;-78
2023/06/15 04:25:09;;;;;;;8.95;2.90;;;17.60;80.00;;;;;;6159912;23;20021;-78
2023/06/15 04:27:35;;;;;;;5.10;2.83;;;17.60;79.70;;;;;;6185903;23;20064;-78
2023/06/15 04:30:02;;;;;;;4.95;2.80;;;17.60;79.40;;;;;;6159682;23;20021;-78
2023/06/15 04:32:29;;;;;;;4.88;2.70;;;17.60;79.70;;;;;;6179134;23;20454;-78
2023/06/15 04:34:56;;;;;;;5.93;2.88;;;17.60;79.00;;;;;;6157830;23;20069;-78
2023/06/15 04:37:23;;;;;;;5.03;2.83;;;17.60;78.80;;;;;;6159223;23;20013;-78
2023/06/15 04:39:50;;;;;;;4.93;2.65;;;17.60;78.30;;;;;;6186039;23;20083;-78
2023/06/15 04:42:18;;;;;;;5.50;2.70;;;17.50;78.10;;;;;;6185671;23;20013;-78
2023/06/15 04:44:44;;;;;;;6.82;2.78;;;17.50;78.30;;;;;;6186434;23;20382;-77
2023/06/15 04:47:10;;;;;;;6.05;2.90;;;17.50;79.10;;;;;;6184940;23;20013;-78
2023/06/15 04:49:35;;;;;;;4.70;2.65;;;17.50;78.90;;;;;;6157973;23;20017;-78
2023/06/15 04:52:01;;;;;;;6.50;2.50;;;17.50;79.40;;;;;;6184877;23;20013;-78
2023/06/15 04:54:27;;;;;;;6.22;2.67;;;17.50;79.20;;;;;;6185843;23;20028;-77
2023/06/15 04:56:53;;;;;;;5.85;2.80;;;17.50;78.80;;;;;;6157453;23;20021;-78
2023/06/15 04:59:18;;;;;;;5.35;2.65;;;17.50;78.50;;;;;;6186222;23;20016;-78
2023/06/15 05:01:44;;;;;;;5.80;2.60;;;17.50;79.40;;;;;;6159174;23;20099;-78
2023/06/15 05:04:10;;;;;;;7.45;2.78;;;17.50;79.50;;;;;;6184386;23;20048;-78
2023/06/15 05:06:35;;;;;;;5.35;2.60;;;17.50;79.70;;;;;;6185632;23;20051;-78
2023/06/15 05:09:01;;;;;;;4.57;2.50;;;17.50;79.30;;;;;;6158662;23;20024;-77
2023/06/15 05:11:27;;;;;;;5.32;2.50;;;17.50;79.70;;;;;;6159336;23;20048;-77
2023/06/15 05:13:54;;;;;;;5.35;2.60;;;17.50;79.70;;;;;;6160102;23;20013;-78
2023/06/15 05:16:19;;;;;;;4.78;2.58;;;17.50;80.10;;;;;;6158277;23;20039;-79
2023/06/15 05:18:46;;;;;;;5.45;2.38;;;17.50;80.20;;;;;;6159108;23;20508;-78
2023/06/15 05:21:12;;;;;;;4.05;2.47;;;17.50;79.80;;;;;;6185591;23;20021;-78
2023/06/15 05:23:37;;;;;;;5.03;2.28;;;17.50;80.40;;;;;;6157968;23;20024;-78
2023/06/15 05:26:03;;;;;;;6.57;2.80;;;17.60;80.30;;;;;;6158748;23;20017;-78
2023/06/15 05:28:30;;;;;;;4.88;2.53;;;17.60;80.10;;;;;;6159305;23;20319;-78
2023/06/15 05:30:55;;;;;;;4.65;2.15;;;17.60;79.60;;;;;;6158326;23;20013;-79
2023/06/15 05:33:21;;;;;;;4.55;2.30;;;17.60;79.70;;;;;;6185485;23;20465;-78
2023/06/15 05:35:46;;;;;;;4.25;2.22;;;17.60;80.00;;;;;;6185115;23;20013;-77
2023/06/15 05:38:12;;;;;;;4.53;2.28;;;17.60;79.60;;;;;;6157989;23;20091;-77
2023/06/15 05:40:37;;;;;;;4.07;2.00;;;17.60;79.10;;;;;;6185404;23;20092;-78
2023/06/15 05:43:03;;;;;;;4.70;2.30;;;17.70;80.20;;;;;;6159639;23;20017;-77
2023/06/15 05:45:30;;;;;;;4.15;1.80;;;17.70;79.80;;;;;;6187449;23;20485;-77
2023/06/15 05:47:55;;;;;;;5.40;2.08;;;17.70;79.80;;;;;;6186677;23;20024;-78
2023/06/15 05:50:21;;;;;;;6.63;2.13;;;17.70;80.10;;;;;;6158936;23;20021;-77
2023/06/15 05:52:46;;;;;;;4.43;2.20;;;17.70;79.40;;;;;;6158429;23;20048;-77
2023/06/15 05:55:12;;;;;;;4.65;2.00;;;17.80;80.10;;;;;;6158877;23;20020;-78
2023/06/15 05:57:38;;;;;;;4.00;2.17;;;17.80;78.90;;;;;;6158785;23;20024;-78
2023/06/15 06:00:04;;;;;;;4.68;2.10;;;17.80;79.60;;;;;;6182408;23;20071;-78
2023/06/15 06:02:31;;;;;;;5.40;1.90;;;17.80;79.30;;;;;;6182825;23;20009;-78
2023/06/15 06:04:56;;;;;;;5.53;2.05;;;17.90;78.50;;;;;;6158320;23;20017;-77
2023/06/15 06:07:23;;;;;;;5.72;2.10;;;17.90;79.00;;;;;;6181826;23;20067;-78
2023/06/15 06:09:49;;;;;;;6.30;2.00;;;17.90;79.00;;;;;;6155752;23;20017;-79
2023/06/15 06:12:15;;;;;;;6.43;2.20;;;18.00;78.60;;;;;;6156566;23;20068;-79
2023/06/15 06:14:40;;;;;;;7.10;2.05;;;18.00;78.40;;;;;;6155128;23;20468;-78
2023/06/15 06:17:07;;;;;;;4.97;1.83;;;18.00;78.00;;;;;;6157211;23;20017;-79
2023/06/15 06:19:32;;;;;;;3.40;1.83;;;18.00;78.50;;;;;;6157228;23;20350;-80
2023/06/15 06:21:58;;;;;;;4.43;2.03;;;18.00;78.70;;;;;;6158585;23;20013;-81
2023/06/15 06:24:23;;;;;;;5.03;1.90;;;18.10;78.50;;;;;;6185584;23;20017;-80
2023/06/15 06:26:49;;;;;;;4.68;1.85;;;18.10;77.00;;;;;;6157783;23;20028;-81
2023/06/15 06:29:15;;;;;;;6.00;2.15;;;18.20;77.90;;;;;;6158138;23;20024;-80
2023/06/15 06:31:42;;;;;;;6.22;2.17;;;18.20;77.70;;;;;;6184905;23;20017;-81
2023/06/15 06:34:08;;;;;;;5.60;2.10;;;18.30;77.70;;;;;;6183067;23;20024;-80
2023/06/15 06:36:34;;;;;;;3.28;1.75;;;18.30;76.40;;;;;;6158542;23;20009;-80
2023/06/15 06:39:00;;;;;;;4.35;1.85;;;18.40;77.50;;;;;;6157570;23;20013;-80
2023/06/15 06:41:25;;;;;;;4.32;1.75;;;18.50;77.70;;;;;;6157784;23;20013;-80
2023/06/15 06:43:52;;;;;;;6.03;2.00;;;18.60;77.80;;;;;;6158524;23;20020;-80
2023/06/15 06:46:17;;;;;;;3.92;1.77;;;18.70;77.80;;;;;;6159206;23;20017;-80
2023/06/15 06:48:43;;;;;;;5.03;2.15;;;18.80;77.80;;;;;;6157581;23;20020;-80
2023/06/15 06:51:09;;;;;;;6.57;2.13;;;18.90;77.90;;;;;;6158432;23;20064;-81
2023/06/15 06:53:35;;;;;;;4.40;1.80;;;19.00;77.50;;;;;;6158794;23;20020;-80
2023/06/15 06:56:00;;;;;;;3.97;1.92;;;19.10;77.30;;;;;;6184076;23;20017;-81
2023/06/15 06:58:27;;;;;;;5.85;1.90;;;19.20;77.40;;;;;;6185533;23;20326;-81
2023/06/15 07:00:53;;;;;;;6.00;2.35;;;19.30;77.30;;;;;;6185126;23;20017;-81
2023/06/15 07:03:19;;;;;;;6.68;2.17;;;19.40;76.70;;;;;;6184014;23;20013;-81
2023/06/15 07:05:46;;;;;;;9.13;2.40;;;19.40;76.50;;;;;;6185401;23;20088;-80
2023/06/15 07:08:12;;;;;;;7.35;2.45;;;19.60;73.90;;;;;;6157687;23;20013;-80
2023/06/15 07:10:37;;;;;;;4.32;1.70;;;19.70;73.30;;;;;;6184463;23;20322;-80
2023/06/15 07:13:03;;;;;;;4.75;1.88;;;19.70;74.80;;;;;;6158339;23;20017;-81
2023/06/15 07:15:31;;;;;;;4.30;1.80;;;19.90;75.10;;;;;;6158432;23;20350;-80
2023/06/15 07:17:57;;;;;;;6.20;1.83;;;20.00;74.60;;;;;;6156859;23;20027;-81
2023/06/15 07:20:23;;;;;;;4.82;2.17;;;20.10;75.00;;;;;;6184128;23;20076;-81
2023/06/15 07:22:48;;;;;;;4.15;1.90;;;20.20;74.80;;;;;;6183987;23;20013;-81
2023/06/15 07:25:14;;;;;;;4.75;1.98;;;20.30;74.80;;;;;;6158265;23;20017;-81
2023/06/15 07:27:40;;;;;;;4.80;1.77;;;20.40;73.80;;;;;;6158448;23;20092;-81
2023/06/15 07:30:06;;;;;;;5.85;2.00;;;20.50;73.60;;;;;;6157088;23;20021;-81
2023/06/15 07:32:31;;;;;;;6.50;2.17;;;20.60;72.50;;;;;;6184557;23;20093;-81
2023/06/15 07:34:57;;;;;;;7.93;2.25;;;20.80;69.60;;;;;;6158108;23;20338;-81
2023/06/15 07:37:22;;;;;;;4.82;1.90;;;20.90;67.30;;;;;;6157660;23;20017;-81
2023/06/15 07:39:48;;;;;;;7.68;2.03;;;20.90;69.50;;;;;;6184947;23;20051;-82
2023/06/15 07:42:14;;;;;;;4.30;1.80;;;21.10;70.10;;;;;;6184998;23;20338;-82
2023/06/15 07:44:39;;;;;;;6.32;2.15;;;21.20;70.50;;;;;;6157713;23;20024;-82
2023/06/15 07:47:07;;;;;;;4.57;1.73;;;21.30;69.90;;;;;;6158198;23;20046;-82
2023/06/15 07:49:33;;;;;;;7.80;1.92;;;21.40;70.30;;;;;;6184814;23;20017;-83
2023/06/15 07:51:58;;;;;;;4.30;1.80;;;21.50;69.10;;;;;;6183997;23;20029;-82
2023/06/15 07:54:24;;;;;;;2.95;1.45;;;21.60;67.70;;;;;;6158468;23;20017;-83
2023/06/15 07:56:50;;;;;;;4.47;1.88;;;21.70;68.40;;;;;;6184831;23;20024;-83
2023/06/15 07:59:15;;;;;;;5.40;1.98;;;21.80;65.90;;;;;;6184219;23;20028;-82
2023/06/15 08:01:41;;;;;;;4.70;2.00;;;21.90;63.30;;;;;;6158279;23;20315;-82
2023/06/15 08:04:07;;;;;;;6.00;2.05;;;22.00;63.70;;;;;;6157916;23;20028;-83
2023/06/15 08:06:33;;;;;;;6.93;1.98;;;22.10;65.60;;;;;;6157252;23;20021;-82
2023/06/15 08:08:59;;;;;;;4.93;2.10;;;22.20;64.60;;;;;;6157939;23;20044;-83
2023/06/15 08:11:26;;;;;;;3.95;1.90;;;22.30;66.80;;;;;;6184834;23;20017;-83
2023/06/15 08:13:51;;;;;;;4.80;1.80;;;22.40;67.60;;;;;;6183285;23;20056;-84
2023/06/15 08:16:17;;;;;;;6.22;1.73;;;22.40;63.90;;;;;;6184771;23;20014;-83
2023/06/15 08:18:43;;;;;;;4.00;2.20;;;22.50;65.50;;;;;;6157936;23;20020;-83
2023/06/15 08:21:08;;;;;;;6.32;2.00;;;22.60;65.20;;;;;;6156912;23;20574;-82
2023/06/15 08:23:34;;;;;;;6.03;2.10;;;22.70;64.90;;;;;;6184925;23;20052;-82
2023/06/15 08:25:59;;;;;;;10.23;2.17;;;22.80;64.30;;;;;;6156834;23;20025;-86
2023/06/15 08:28:25;;;;;;;3.50;1.90;;;22.90;65.70;;;;;;6184345;23;20017;-83
2023/06/15 08:30:51;;;;;;;8.35;2.30;;;23.00;62.40;;;;;;6157479;23;20473;-82
2023/06/15 08:33:18;;;;;;;4.00;1.83;;;23.00;62.50;;;;;;6184884;23;20454;-84
2023/06/15 08:35:44;;;;;;;4.25;1.95;;;23.20;64.40;;;;;;6185323;23;20017;-86
2023/06/15 08:38:09;;;;;;;5.97;1.92;;;23.30;66.30;;;;;;6158409;23;20023;-84
2023/06/15 08:40:35;;;;;;;3.30;1.73;;;23.40;63.60;;;;;;6184783;23;20017;-84
2023/06/15 08:43:05;;;;;;;7.55;2.00;;;23.40;64.20;;;;;;6158579;23;20067;-84
2023/06/15 08:45:41;;;;;;;4.53;1.90;;;23.50;63.80;;;;;;6159761;23;20021;-84
2023/06/15 08:48:11;;;;;;;4.20;1.80;;;23.60;60.80;;;;;;6158148;23;20013;-84
2023/06/15 08:50:38;;;;;;;4.90;2.25;;;23.70;64.20;;;;;;6186342;23;20338;-82
2023/06/15 08:53:08;;;;;;;6.43;1.77;;;23.80;62.80;;;;;;6159573;23;20020;-83
2023/06/15 08:55:35;;;;;;;6.30;2.08;;;23.80;62.60;;;;;;6184538;23;20508;-83
2023/06/15 08:58:01;;;;;;;6.45;2.20;;;23.90;62.40;;;;;;6185931;23;20017;-83
2023/06/15 09:00:26;;;;;;;3.65;1.90;;;24.00;60.10;;;;;;6185572;23;20101;-84
2023/06/15 09:02:56;;;;;;;6.03;2.15;;;24.10;62.50;;;;;;6184334;23;20020;-84
2023/06/15 09:05:22;;;;;;;5.20;1.77;;;24.20;60.30;;;;;;6186220;23;20028;-84
2023/06/15 09:07:48;;;;;;;4.13;1.90;;;24.30;62.20;;;;;;6158999;23;20021;-84
2023/06/15 09:10:21;;;;;;;5.00;1.60;;;24.30;64.00;;;;;;6158807;23;20045;-84
2023/06/15 09:12:49;;;;;;;5.35;2.03;;;24.50;64.00;;;;;;6158866;23;20024;-83
2023/06/15 09:15:28;;;;;;;4.75;1.83;;;24.50;58.20;;;;;;6158835;23;20068;-83
2023/06/15 09:17:56;;;;;;;3.90;1.88;;;24.60;57.70;;;;;;6159170;23;20045;-84
2023/06/15 09:20:26;;;;;;;4.95;1.73;;;24.70;61.10;;;;;;6159626;23;20350;-83
2023/06/15 09:23:01;;;;;;;4.60;1.80;;;24.80;59.40;;;;;;6184564;23;20389;-82
2023/06/15 09:25:29;;;;;;;5.55;2.10;;;24.80;58.90;;;;;;6179319;23;20020;-83
2023/06/15 09:27:56;;;;;;;5.00;1.70;;;24.90;56.90;;;;;;6185164;23;20060;-83
2023/06/15 09:30:33;;;;;;;3.78;1.80;;;25.00;59.00;;;;;;6158293;23;20153;-84
2023/06/15 09:33:19;;;;;;;6.80;2.25;;;25.10;59.60;;;;;;6158377;23;20446;-83
2023/06/15 09:35:57;;;;;;;6.72;2.25;;;25.20;57.40;;;;;;6156605;23;20028;-84
2023/06/15 09:38:24;;;;;;;4.22;1.75;;;25.30;58.10;;;;;;6156884;23;20020;-84
2023/06/15 09:40:50;;;;;;;5.00;2.10;;;25.40;59.60;;;;;;6158606;23;20457;-84
2023/06/15 09:43:18;;;;;;;6.32;2.25;;;25.50;60.60;;;;;;6159140;23;20021;-83
2023/06/15 09:45:53;;;;;;;3.58;1.80;;;25.60;57.80;;;;;;6184343;23;20495;-84
2023/06/15 09:48:19;;;;;;;4.43;1.70;;;25.70;59.80;;;;;;6158855;23;20017;-84
2023/06/15 09:51:00;;;;;;;4.03;1.80;;;25.80;60.80;;;;;;6158001;23;20065;-84
2023/06/15 09:53:28;;;;;;;6.18;1.70;;;25.80;58.80;;;;;;6185758;23;20096;-81
2023/06/15 09:55:54;;;;;;;5.93;2.00;;;25.90;60.10;;;;;;6158258;23;20023;-84
2023/06/15 09:58:20;;;;;;;4.30;1.65;;;26.00;61.10;;;;;;6157268;23;20021;-84
2023/06/15 10:00:47;;;;;;;4.63;2.00;;;26.00;59.60;;;;;;6185034;23;20098;-83
2023/06/15 10:03:18;;;;;;;5.63;2.03;;;26.10;58.40;;;;;;6158580;23;20013;-83
2023/06/15 10:05:46;;;;;;;6.03;2.00;;;26.10;53.50;;;;;;6158282;23;20468;-84
2023/06/15 10:08:15;;;;;;;2.80;1.67;;;26.20;55.40;;;;;;6158650;23;20019;-84
2023/06/15 10:10:43;;;;;;;3.40;1.88;;;26.20;56.90;;;;;;6158104;23;20516;-84
2023/06/15 10:13:13;;;;;;;4.85;2.00;;;26.30;58.70;;;;;;6156872;23;20096;-82
2023/06/15 10:15:41;;;;;;;5.75;2.30;;;26.40;59.10;;;;;;6158441;23;20120;-82
2023/06/15 10:18:12;;;;;;;3.80;1.73;;;26.50;57.00;;;;;;6184518;23;20017;-83
2023/06/15 10:20:38;;;;;;;5.20;1.80;;;26.60;59.20;;;;;;6157080;23;20021;-83
2023/06/15 10:23:08;;;;;;;4.63;1.88;;;26.70;59.50;;;;;;6184153;23;20465;-83
2023/06/15 10:25:35;;;;;;;5.50;1.80;;;26.80;56.10;;;;;;6157429;23;20028;-83
2023/06/15 10:28:03;;;;;;;4.30;1.85;;;26.80;58.00;;;;;;6158260;23;20448;-82
2023/06/15 10:30:35;;;;;;;5.28;1.85;;;27.00;59.20;;;;;;6158603;23;20017;-83
2023/06/15 10:33:07;;;;;;;5.87;1.83;;;27.10;59.70;;;;;;6156733;23;20099;-83
2023/06/15 10:35:39;;;;;;;4.65;2.05;;;27.10;57.30;;;;;;6157917;23;20729;-82
2023/06/15 10:38:47;;;;;;;4.10;1.95;;;27.20;58.20;;;;;;6184061;23;20347;-82
2023/06/15 10:41:14;;;;;;;4.45;1.73;;;27.30;59.60;;;;;;6157739;23;20013;-83
2023/06/15 10:43:39;;;;;;;4.38;1.92;;;27.40;57.70;;;;;;6185540;23;20040;-81
2023/06/15 10:46:06;;;;;;;4.50;1.90;;;27.40;54.90;;;;;;6158303;23;20028;-82
2023/06/15 10:48:38;;;;;;;4.22;1.90;;;27.50;56.50;;;;;;6157537;23;20089;-82
2023/06/15 10:51:08;;;;;;;5.53;2.08;;;27.50;57.10;;;;;;6158489;23;20024;-81
2023/06/15 10:53:42;;;;;;;5.80;1.88;;;27.60;54.20;;;;;;6185652;23;20013;-81
2023/06/15 10:56:15;;;;;;;5.13;2.28;;;27.60;53.30;;;;;;6158297;23;20104;-81
2023/06/15 10:58:57;;;;;;;5.75;2.05;;;27.60;49.30;;;;;;6185272;23;20045;-82
2023/06/15 11:01:28;;;;;;;3.90;1.80;;;27.60;52.70;;;;;;6184519;23;20023;-83
2023/06/15 11:03:55;;;;;;;4.38;1.83;;;27.70;54.90;;;;;;6185473;23;20013;-84
2023/06/15 11:06:42;;;;;;;8.93;2.20;;;27.70;54.90;;;;;;6158927;23;20024;-82
2023/06/15 11:09:13;;;;;;;4.40;1.92;;;27.80;51.80;;;;;;6156719;23;20060;-81
2023/06/15 11:11:42;;;;;;;5.53;2.20;;;27.80;50.30;;;;;;6185662;23;20059;-81
2023/06/15 11:14:21;;;;;;;5.22;2.10;;;27.80;52.60;;;;;;6158676;23;20028;-81
2023/06/15 11:17:04;;;;;;;7.10;2.10;;;27.90;54.90;;;;;;6184383;23;20052;-81
2023/06/15 11:19:30;;;;;;;4.60;2.00;;;27.90;48.50;;;;;;6158811;23;20032;-82
2023/06/15 11:22:05;;;;;;;6.63;2.25;;;28.00;51.00;;;;;;6183735;23;20013;-83
2023/06/15 11:24:38;;;;;;;5.30;2.22;;;28.10;53.90;;;;;;6158289;23;20045;-81
2023/06/15 11:27:06;;;;;;;4.57;1.90;;;28.10;54.80;;;;;;6158433;23;20497;-81
2023/06/15 11:29:34;;;;;;;4.45;2.00;;;28.20;54.30;;;;;;6158128;23;20465;-81
2023/06/15 11:32:02;;;;;;;5.30;1.90;;;28.30;53.10;;;;;;6158021;23;20449;-81
2023/06/15 11:34:28;;;;;;;4.53;1.70;;;28.30;47.30;;;;;;6158819;23;20446;-82
2023/06/15 11:37:00;;;;;;;4.13;1.85;;;28.40;51.90;;;;;;6183729;23;20352;-80
2023/06/15 11:39:28;;;;;;;5.40;1.70;;;28.40;53.50;;;;;;6158685;23;20446;-82
2023/06/15 11:41:55;;;;;;;3.58;1.90;;;28.50;54.90;;;;;;6158375;23;20032;-81
2023/06/15 11:44:23;;;;;;;4.05;1.67;;;28.60;53.70;;;;;;6158078;23;20342;-81
2023/06/15 11:46:56;;;;;;;3.42;1.90;;;28.60;54.20;;;;;;6157994;23;20013;-82
2023/06/15 11:49:22;;;;;;;4.45;1.80;;;28.70;55.90;;;;;;6185094;23;20056;-82
2023/06/15 11:51:51;;;;;;;3.47;1.70;;;28.80;56.40;;;;;;6184278;23;20321;-83
2023/06/15 11:54:17;;;;;;;4.03;1.90;;;28.80;56.80;;;;;;6158475;23;20021;-82
2023/06/15 11:56:47;;;;;;;4.80;1.90;;;29.00;57.00;;;;;;6185517;23;20009;-82
2023/06/15 11:59:15;;;;;;;5.22;2.10;;;29.10;56.20;;;;;;6157384;23;20017;-81
2023/06/15 12:01:41;;;;;;;3.80;1.80;;;29.10;56.60;;;;;;6158358;23;20024;-82
2023/06/15 12:04:12;;;;;;;4.18;1.70;;;29.10;56.80;;;;;;6183950;23;20044;-82
2023/06/15 12:06:41;;;;;;;5.50;2.30;;;29.20;56.70;;;;;;6159565;23;20334;-80
2023/06/15 12:09:07;;;;;;;6.97;2.08;;;29.20;48.00;;;;;;6160285;23;20071;-81
2023/06/15 12:11:33;;;;;;;3.85;1.73;;;29.30;50.60;;;;;;6186044;23;20017;-83
2023/06/15 12:14:10;;;;;;;3.70;1.70;;;29.30;51.30;;;;;;6160005;23;20021;-81
2023/06/15 12:16:38;;;;;;;3.67;1.60;;;29.30;54.00;;;;;;6160032;23;20438;-81
2023/06/15 12:19:08;;;;;;;3.97;1.95;;;29.30;54.80;;;;;;6186023;23;20096;-82
2023/06/15 12:21:39;;;;;;;5.68;2.25;;;29.40;53.90;;;;;;6160520;23;20445;-81
2023/06/15 12:24:13;;;;;;;4.47;1.60;;;29.50;51.60;;;;;;6159826;23;20104;-82
2023/06/15 12:26:39;;;;;;;3.95;2.00;;;29.50;53.60;;;;;;6185924;23;20608;-81
2023/06/15 12:29:16;;;;;;;4.45;2.10;;;29.50;51.50;;;;;;6159865;23;20017;-82
2023/06/15 12:31:41;;;;;;;5.15;1.73;;;29.50;47.70;;;;;;6160173;23;20059;-90
2023/06/15 12:34:08;;;;;;;5.68;2.00;;;29.50;51.20;;;;;;6158814;23;20029;-82
2023/06/15 12:36:37;;;;;;;7.38;2.38;;;29.50;53.30;;;;;;6186864;23;20013;-81
2023/06/15 12:39:13;;;;;;;4.63;2.30;;;29.60;48.90;;;;;;6159907;23;20017;-81
2023/06/15 12:41:41;;;;;;;7.35;2.10;;;29.60;50.60;;;;;;6160111;23;20028;-82
2023/06/15 12:44:07;;;;;;;4.22;1.92;;;29.70;52.00;;;;;;6186744;23;20024;-82
2023/06/15 12:46:36;;;;;;;6.18;2.10;;;29.80;52.90;;;;;;6159471;23;20013;-82
2023/06/15 12:49:02;;;;;;;5.53;1.75;;;29.80;53.80;;;;;;6159621;23;20013;-83